createdAt,value
2018-04-01T00:02:20.665Z,8.73
2018-04-01T00:04:51.468Z,10.10
2018-04-01T00:07:22.266Z,8.27
2018-04-01T00:09:53.064Z,9.10
2018-04-01T00:12:23.870Z,8.73
2018-04-01T00:14:54.644Z,9.10
2018-04-01T00:17:25.450Z,9.00
2018-04-01T00:19:56.213Z,8.03
2018-04-01T00:22:26.972Z,8.07
2018-04-01T00:24:57.747Z,7.43
2018-04-01T00:27:28.521Z,7.80
2018-04-01T00:29:59.319Z,8.47
2018-04-01T00:32:30.104Z,7.73
2018-04-01T00:35:00.865Z,8.03
2018-04-01T00:37:31.648Z,8.13
2018-04-01T00:40:02.437Z,7.63
2018-04-01T00:42:33.215Z,7.97
2018-04-01T00:45:04.030Z,8.07
2018-04-01T00:47:34.793Z,8.07
2018-04-01T00:50:05.597Z,8.50
2018-04-01T00:52:36.389Z,7.93
2018-04-01T00:55:07.212Z,8.37
2018-04-01T00:57:37.985Z,8.80
2018-04-01T01:00:08.745Z,9.50
2018-04-01T01:02:39.524Z,8.57
2018-04-01T01:05:10.273Z,8.40
2018-04-01T01:07:41.091Z,9.97
2018-04-01T01:10:11.843Z,8.67
2018-04-01T01:12:42.629Z,8.60
2018-04-01T01:15:13.433Z,8.60
2018-04-01T01:17:44.193Z,8.50
2018-04-01T01:20:14.989Z,8.03
2018-04-01T01:22:45.774Z,7.80
2018-04-01T01:25:16.564Z,8.73
2018-04-01T01:27:47.340Z,7.97
2018-04-01T01:30:18.138Z,7.83
2018-04-01T01:32:48.896Z,7.70
2018-04-01T01:35:19.669Z,8.23
2018-04-01T01:37:50.465Z,7.87
2018-04-01T01:40:21.282Z,7.23
2018-04-01T01:42:52.049Z,7.60
2018-04-01T01:45:22.838Z,7.20
2018-04-01T01:47:53.609Z,7.20
2018-04-01T01:50:24.374Z,6.57
2018-04-01T01:52:55.139Z,7.00
2018-04-01T01:55:25.878Z,7.00
2018-04-01T01:57:56.688Z,7.30
2018-04-01T02:00:27.473Z,7.53
2018-04-01T02:02:58.268Z,6.90
2018-04-01T02:05:29.068Z,7.07
2018-04-01T02:07:59.861Z,7.10
2018-04-01T02:10:30.651Z,6.83
2018-04-01T02:13:01.444Z,6.83
2018-04-01T02:15:32.233Z,6.33
2018-04-01T02:18:03.019Z,6.97
2018-04-01T02:20:33.793Z,6.30
2018-04-01T02:23:04.567Z,6.80
2018-04-01T02:25:35.337Z,6.47
2018-04-01T02:28:06.088Z,7.03
2018-04-01T02:30:36.900Z,6.30
2018-04-01T02:33:07.667Z,5.90
2018-04-01T02:35:38.461Z,6.93
2018-04-01T02:38:09.250Z,6.63
2018-04-01T02:40:40.033Z,6.80
2018-04-01T02:43:10.832Z,6.20
2018-04-01T02:45:41.628Z,7.50
2018-04-01T02:48:12.452Z,5.57
2018-04-01T02:50:43.232Z,6.70
2018-04-01T02:53:13.994Z,6.00
2018-04-01T02:55:44.771Z,6.23
2018-04-01T02:58:15.577Z,6.70
2018-04-01T03:00:46.363Z,5.80
2018-04-01T03:03:17.155Z,6.30
2018-04-01T03:05:47.981Z,5.93
2018-04-01T03:08:18.752Z,6.57
2018-04-01T03:10:49.541Z,5.23
2018-04-01T03:13:20.330Z,5.20
2018-04-01T03:15:51.138Z,5.43
2018-04-01T03:18:21.904Z,5.20
2018-04-01T03:20:52.673Z,5.87
2018-04-01T03:23:23.458Z,6.13
2018-04-01T03:25:54.237Z,5.40
2018-04-01T03:28:25.010Z,5.37
2018-04-01T03:30:55.797Z,5.37
2018-04-01T03:33:26.561Z,5.33
2018-04-01T03:35:57.353Z,6.00
2018-04-01T03:38:28.166Z,5.33
2018-04-01T03:40:58.953Z,5.53
2018-04-01T03:43:29.721Z,5.63
2018-04-01T03:46:00.551Z,6.00
2018-04-01T03:48:31.300Z,5.53
2018-04-01T03:51:02.079Z,6.00
2018-04-01T03:53:32.851Z,6.40
2018-04-01T03:56:03.607Z,5.40
2018-04-01T03:58:34.389Z,6.40
2018-04-01T04:01:05.178Z,6.23
2018-04-01T04:03:36.023Z,6.27
2018-04-01T04:06:06.812Z,5.37
2018-04-01T04:08:37.615Z,7.00
2018-04-01T04:11:08.382Z,5.77
2018-04-01T04:13:39.187Z,5.80
2018-04-01T04:16:09.939Z,6.00
2018-04-01T04:18:40.713Z,7.27
2018-04-01T04:21:11.456Z,5.93
2018-04-01T04:23:42.287Z,5.60
2018-04-01T04:26:13.076Z,5.80
2018-04-01T04:28:43.836Z,5.50
2018-04-01T04:31:14.598Z,6.00
2018-04-01T04:33:45.389Z,7.10
2018-04-01T04:36:16.178Z,6.30
2018-04-01T04:38:46.956Z,6.10
2018-04-01T04:41:17.737Z,6.53
2018-04-01T04:43:48.505Z,6.47
2018-04-01T04:46:19.284Z,6.33
2018-04-01T04:48:50.043Z,7.00
2018-04-01T04:51:20.801Z,6.87
2018-04-01T04:53:51.605Z,6.93
2018-04-01T04:56:22.360Z,7.07
2018-04-01T04:58:53.135Z,7.03
2018-04-01T05:01:23.922Z,6.83
2018-04-01T05:03:54.699Z,7.57
2018-04-01T05:06:25.456Z,7.03
2018-04-01T05:08:56.252Z,7.23
2018-04-01T05:11:27.021Z,8.07
2018-04-01T05:13:57.815Z,7.10
2018-04-01T05:16:28.605Z,7.23
2018-04-01T05:18:59.402Z,7.80
2018-04-01T05:21:30.199Z,7.50
2018-04-01T05:24:00.965Z,7.67
2018-04-01T05:26:31.759Z,7.63
2018-04-01T05:29:02.508Z,7.33
2018-04-01T05:31:33.299Z,6.90
2018-04-01T05:34:04.057Z,10.43
2018-04-01T05:36:34.833Z,7.40
2018-04-01T05:39:05.642Z,7.73
2018-04-01T05:41:36.439Z,8.20
2018-04-01T05:44:07.239Z,9.07
2018-04-01T05:46:38.001Z,8.33
2018-04-01T05:49:08.809Z,9.60
2018-04-01T05:51:39.589Z,8.20
2018-04-01T05:54:10.375Z,8.33
2018-04-01T05:56:41.145Z,8.50
2018-04-01T05:59:11.912Z,8.10
2018-04-01T06:01:42.721Z,7.83
2018-04-01T06:04:13.504Z,8.90
2018-04-01T06:06:44.293Z,8.20
2018-04-01T06:09:15.094Z,8.23
2018-04-01T06:11:45.914Z,7.13
2018-04-01T06:14:16.727Z,7.57
2018-04-01T06:16:47.483Z,7.33
2018-04-01T06:19:18.257Z,7.87
2018-04-01T06:21:49.019Z,8.13
2018-04-01T06:24:19.763Z,7.27
2018-04-01T06:26:50.552Z,8.33
2018-04-01T06:29:21.361Z,7.53
2018-04-01T06:31:52.143Z,7.40
2018-04-01T06:34:22.904Z,7.23
2018-04-01T06:36:53.669Z,6.90
2018-04-01T06:39:24.439Z,6.20
2018-04-01T06:41:55.200Z,6.43
2018-04-01T06:44:25.952Z,7.57
2018-04-01T06:46:56.736Z,5.77
2018-04-01T06:49:27.510Z,5.40
2018-04-01T06:51:58.284Z,5.37
2018-04-01T06:54:29.056Z,4.63
2018-04-01T06:56:59.872Z,4.40
2018-04-01T06:59:30.647Z,3.97
2018-04-01T07:02:01.421Z,4.03
2018-04-01T07:04:32.230Z,4.10
2018-04-01T07:07:02.992Z,4.33
2018-04-01T07:09:33.769Z,4.73
2018-04-01T07:12:04.571Z,4.63
2018-04-01T07:14:35.342Z,4.10
2018-04-01T07:17:06.130Z,4.80
2018-04-01T07:22:06.180Z,5.47
2018-04-01T07:24:36.937Z,6.43
2018-04-01T07:27:07.749Z,5.27
2018-04-01T07:29:38.515Z,4.80
2018-04-01T07:32:09.313Z,5.60
2018-04-01T07:34:40.101Z,4.93
2018-04-01T07:37:10.870Z,5.13
2018-04-01T07:39:41.675Z,4.97
2018-04-01T07:42:12.512Z,4.70
2018-04-01T07:44:43.295Z,5.30
2018-04-01T07:47:14.088Z,5.50
2018-04-01T07:49:44.840Z,6.27
2018-04-01T07:52:15.603Z,6.40
2018-04-01T07:54:46.355Z,6.03
2018-04-01T07:57:17.179Z,5.30
2018-04-01T07:59:47.921Z,5.97
2018-04-01T08:02:18.758Z,5.60
2018-04-01T08:04:49.561Z,6.33
2018-04-01T08:07:20.343Z,5.70
2018-04-01T08:09:51.133Z,6.23
2018-04-01T08:12:21.901Z,5.97
2018-04-01T08:14:52.716Z,5.70
2018-04-01T08:17:23.527Z,5.87
2018-04-01T08:19:54.291Z,5.33
2018-04-01T08:22:25.083Z,5.00
2018-04-01T08:24:55.866Z,5.27
2018-04-01T08:27:26.652Z,4.93
2018-04-01T08:29:57.542Z,4.80
2018-04-01T08:32:28.317Z,5.40
2018-04-01T08:34:59.104Z,5.20
2018-04-01T08:37:29.887Z,5.57
2018-04-01T08:40:00.676Z,5.70
2018-04-01T08:42:31.445Z,4.90
2018-04-01T08:45:02.254Z,5.50
2018-04-01T08:47:33.011Z,5.17
2018-04-01T08:50:05.082Z,4.93
2018-04-01T08:52:35.859Z,4.93
2018-04-01T08:55:06.622Z,4.43
2018-04-01T08:57:37.394Z,5.30
2018-04-01T09:00:08.246Z,4.93
2018-04-01T09:02:39.017Z,5.07
2018-04-01T09:05:09.803Z,5.00
2018-04-01T09:07:40.581Z,4.85
2018-04-01T09:10:11.368Z,4.17
2018-04-01T09:12:42.143Z,4.90
2018-04-01T09:15:12.948Z,4.23
2018-04-01T09:17:43.736Z,5.93
2018-04-01T09:20:14.534Z,3.97
2018-04-01T09:22:45.317Z,4.03
2018-04-01T09:25:16.091Z,3.67
2018-04-01T09:27:46.913Z,4.10
2018-04-01T09:30:17.752Z,4.90
2018-04-01T09:32:48.534Z,3.63
2018-04-01T09:35:19.353Z,4.03
2018-04-01T09:37:50.137Z,3.87
2018-04-01T09:40:20.895Z,3.70
2018-04-01T09:42:51.660Z,3.90
2018-04-01T09:45:22.461Z,3.93
2018-04-01T09:47:53.250Z,3.33
2018-04-01T09:50:24.024Z,3.50
2018-04-01T09:52:54.775Z,3.53
2018-04-01T09:55:25.549Z,3.07
2018-04-01T09:57:56.328Z,3.17
2018-04-01T10:00:27.162Z,3.40
2018-04-01T10:02:58.141Z,3.47
2018-04-01T10:05:29.164Z,2.90
2018-04-01T10:08:00.124Z,3.53
2018-04-01T10:10:31.129Z,2.90
2018-04-01T10:13:02.145Z,3.17
2018-04-01T10:15:33.094Z,3.60
2018-04-01T10:18:04.104Z,2.70
2018-04-01T10:20:35.059Z,3.47
2018-04-01T10:23:06.054Z,2.97
2018-04-01T10:25:37.029Z,3.50
2018-04-01T10:28:08.062Z,3.87
2018-04-01T10:30:39.105Z,3.27
2018-04-01T10:33:10.173Z,2.90
2018-04-01T10:35:41.169Z,2.23
2018-04-01T10:38:12.198Z,2.73
2018-04-01T10:40:43.180Z,3.00
2018-04-01T10:43:14.179Z,3.10
2018-04-01T10:45:45.168Z,3.13
2018-04-01T10:48:16.179Z,3.10
2018-04-01T10:50:47.210Z,2.60
2018-04-01T10:53:18.218Z,2.47
2018-04-01T10:55:49.005Z,2.60
2018-04-01T10:58:19.761Z,2.70
2018-04-01T11:00:50.562Z,2.57
2018-04-01T11:03:21.352Z,2.33
2018-04-01T11:05:52.145Z,2.80
2018-04-01T11:08:22.929Z,2.40
2018-04-01T11:10:53.732Z,3.00
2018-04-01T11:13:24.521Z,2.93
2018-04-01T11:15:55.290Z,2.50
2018-04-01T11:18:26.035Z,2.60
2018-04-01T11:20:56.779Z,3.70
2018-04-01T11:23:27.580Z,2.80
2018-04-01T11:25:58.383Z,2.30
2018-04-01T11:28:29.201Z,2.83
2018-04-01T11:30:59.987Z,2.60
2018-04-01T11:33:30.758Z,2.97
2018-04-01T11:36:01.535Z,2.60
2018-04-01T11:38:32.321Z,2.33
2018-04-01T11:41:03.082Z,2.57
2018-04-01T11:43:33.841Z,3.30
2018-04-01T11:46:04.599Z,2.37
2018-04-01T11:48:35.388Z,2.57
2018-04-01T11:51:06.187Z,1.83
2018-04-01T11:53:36.973Z,2.10
2018-04-01T11:56:07.782Z,2.57
2018-04-01T11:58:38.556Z,3.37
2018-04-01T12:01:09.359Z,2.57
2018-04-01T12:03:40.137Z,2.20
2018-04-01T12:06:10.918Z,2.20
2018-04-01T12:08:41.723Z,2.50
2018-04-01T12:11:12.483Z,1.70
2018-04-01T12:13:43.239Z,2.33
2018-04-01T12:16:14.004Z,2.07
2018-04-01T12:18:44.783Z,1.47
2018-04-01T12:21:15.670Z,1.67
2018-04-01T12:23:46.530Z,1.87
2018-04-01T12:26:17.326Z,1.33
2018-04-01T12:28:48.117Z,1.70
2018-04-01T12:31:18.873Z,1.30
2018-04-01T12:33:49.679Z,1.50
2018-04-01T12:36:20.453Z,1.40
2018-04-01T12:38:51.326Z,1.23
2018-04-01T12:41:22.092Z,1.90
2018-04-01T12:43:52.835Z,1.80
2018-04-01T12:46:23.592Z,1.60
2018-04-01T12:48:54.369Z,2.50
2018-04-01T12:51:25.162Z,1.80
2018-04-01T12:53:55.915Z,2.27
2018-04-01T12:56:26.703Z,2.10
2018-04-01T12:58:57.497Z,2.20
2018-04-01T13:01:28.292Z,2.07
2018-04-01T13:03:59.064Z,2.40
2018-04-01T13:06:29.845Z,1.93
2018-04-01T13:09:00.620Z,1.53
2018-04-01T13:11:31.439Z,2.20
2018-04-01T13:14:02.242Z,2.03
2018-04-01T13:16:33.016Z,1.43
2018-04-01T13:19:03.776Z,2.30
2018-04-01T13:21:34.540Z,3.67
2018-04-01T13:24:05.340Z,1.97
2018-04-01T13:26:36.157Z,2.97
2018-04-01T13:29:06.956Z,1.93
2018-04-01T13:31:37.720Z,2.23
2018-04-01T13:34:08.487Z,2.60
2018-04-01T13:36:39.271Z,2.57
2018-04-01T13:39:10.053Z,2.93
2018-04-01T13:41:40.810Z,3.33
2018-04-01T13:44:11.603Z,3.63
2018-04-01T13:46:42.396Z,3.20
2018-04-01T13:49:13.179Z,3.87
2018-04-01T13:51:43.928Z,3.23
2018-04-01T13:54:14.693Z,3.07
2018-04-01T13:56:45.537Z,4.10
2018-04-01T13:59:16.325Z,3.90
2018-04-01T14:01:47.077Z,3.80
2018-04-01T14:04:17.829Z,3.60
2018-04-01T14:06:48.635Z,3.30
2018-04-01T14:09:19.377Z,3.47
2018-04-01T14:11:50.191Z,3.90
2018-04-01T14:14:20.991Z,3.90
2018-04-01T14:16:51.780Z,4.00
2018-04-01T14:19:22.534Z,3.67
2018-04-01T14:21:53.318Z,3.77
2018-04-01T14:24:24.062Z,2.93
2018-04-01T14:26:54.853Z,3.97
2018-04-01T14:29:25.637Z,4.40
2018-04-01T14:31:56.389Z,4.07
2018-04-01T14:34:27.187Z,4.60
2018-04-01T14:36:58.002Z,4.03
2018-04-01T14:39:28.794Z,4.23
2018-04-01T14:41:59.551Z,5.27
2018-04-01T14:44:30.334Z,5.03
2018-04-01T14:47:01.087Z,5.13
2018-04-01T14:49:31.902Z,5.43
2018-04-01T14:52:02.672Z,4.97
2018-04-01T14:54:33.453Z,4.77
2018-04-01T14:57:04.235Z,5.47
2018-04-01T14:59:35.019Z,5.40
2018-04-01T15:02:05.827Z,5.37
2018-04-01T15:04:36.599Z,5.47
2018-04-01T15:07:07.372Z,5.17
2018-04-01T15:09:38.159Z,5.43
2018-04-01T15:12:08.938Z,6.13
2018-04-01T15:14:39.680Z,5.70
2018-04-01T15:17:10.463Z,3.90
2018-04-01T15:19:41.204Z,3.93
2018-04-01T15:22:12.021Z,3.43
2018-04-01T15:24:42.796Z,3.80
2018-04-01T15:27:13.598Z,4.80
2018-04-01T15:29:44.382Z,4.40
2018-04-01T15:32:15.145Z,3.97
2018-04-01T15:34:45.921Z,4.67
2018-04-01T15:37:16.699Z,4.37
2018-04-01T15:39:47.493Z,4.83
2018-04-01T15:42:18.276Z,5.13
2018-04-01T15:44:49.064Z,5.50
2018-04-01T15:47:19.847Z,5.60
2018-04-01T15:49:50.655Z,5.03
2018-04-01T15:52:21.425Z,4.80
2018-04-01T15:54:52.238Z,5.77
2018-04-01T15:57:23.045Z,5.30
2018-04-01T15:59:53.817Z,5.17
2018-04-01T16:02:24.608Z,5.00
2018-04-01T16:04:55.379Z,5.00
2018-04-01T16:07:26.188Z,5.43
2018-04-01T16:09:56.955Z,6.00
2018-04-01T16:12:27.748Z,5.47
2018-04-01T16:14:58.539Z,5.93
2018-04-01T16:17:29.289Z,5.50
2018-04-01T16:20:00.089Z,5.60
2018-04-01T16:22:30.878Z,5.00
2018-04-01T16:25:01.691Z,5.97
2018-04-01T16:27:32.439Z,4.93
2018-04-01T16:30:03.268Z,5.50
2018-04-01T16:32:34.029Z,5.27
2018-04-01T16:35:04.815Z,5.83
2018-04-01T16:37:35.580Z,5.30
2018-04-01T16:40:06.346Z,5.23
2018-04-01T16:42:37.135Z,5.80
2018-04-01T16:45:07.868Z,7.37
2018-04-01T16:47:38.675Z,6.13
2018-04-01T16:50:09.462Z,7.03
2018-04-01T16:52:40.245Z,6.60
2018-04-01T16:55:11.022Z,6.67
2018-04-01T16:57:41.774Z,8.27
2018-04-01T17:00:12.560Z,8.40
2018-04-01T17:02:43.360Z,7.97
2018-04-01T17:05:14.129Z,9.30
2018-04-01T17:07:44.896Z,8.37
2018-04-01T17:10:15.674Z,7.67
2018-04-01T17:12:46.470Z,8.23
2018-04-01T17:15:17.267Z,9.27
2018-04-01T17:17:48.026Z,8.37
2018-04-01T17:20:18.832Z,7.50
2018-04-01T17:22:49.587Z,6.07
2018-04-01T17:25:20.379Z,4.17
2018-04-01T17:27:51.166Z,6.00
2018-04-01T17:30:21.957Z,3.57
2018-04-01T17:32:52.730Z,3.63
2018-04-01T17:35:23.511Z,3.40
2018-04-01T17:37:54.279Z,3.37
2018-04-01T17:40:25.091Z,3.23
2018-04-01T17:42:55.892Z,3.97
2018-04-01T17:45:26.723Z,3.33
2018-04-01T17:47:57.495Z,4.07
2018-04-01T17:50:28.241Z,4.27
2018-04-01T17:52:59.041Z,5.00
2018-04-01T17:55:29.853Z,5.27
2018-04-01T17:58:00.648Z,4.80
2018-04-01T18:00:31.429Z,6.13
2018-04-01T18:03:02.222Z,5.03
2018-04-01T18:05:33.000Z,6.20
2018-04-01T18:08:03.776Z,5.87
2018-04-01T18:10:34.581Z,6.20
2018-04-01T18:13:05.349Z,7.23
2018-04-01T18:15:36.120Z,7.30
2018-04-01T18:18:06.928Z,8.93
2018-04-01T18:20:37.691Z,7.30
2018-04-01T18:23:08.477Z,7.23
2018-04-01T18:25:39.306Z,6.53
2018-04-01T18:28:10.060Z,7.13
2018-04-01T18:30:40.859Z,7.00
2018-04-01T18:33:11.611Z,7.53
2018-04-01T18:35:42.416Z,8.07
2018-04-01T18:38:13.165Z,6.87
2018-04-01T18:40:43.930Z,8.47
2018-04-01T18:43:14.688Z,8.53
2018-04-01T18:45:45.480Z,8.07
2018-04-01T18:48:16.252Z,8.60
2018-04-01T18:50:47.019Z,8.30
2018-04-01T18:53:17.812Z,7.80
2018-04-01T18:55:48.633Z,8.60
2018-04-01T18:58:19.466Z,8.90
2018-04-01T19:00:50.222Z,7.87
2018-04-01T19:03:20.997Z,7.97
2018-04-01T19:05:51.772Z,7.93
2018-04-01T19:08:22.577Z,8.47
2018-04-01T19:10:53.363Z,8.53
2018-04-01T19:13:24.159Z,8.70
2018-04-01T19:15:54.941Z,9.87
2018-04-01T19:18:25.959Z,8.20
2018-04-01T19:20:56.935Z,9.70
2018-04-01T19:23:27.949Z,9.50
2018-04-01T19:25:58.936Z,10.10
2018-04-01T19:28:29.917Z,9.00
2018-04-01T19:31:00.908Z,10.17
2018-04-01T19:33:31.926Z,9.87
2018-04-01T19:36:02.897Z,12.30
2018-04-01T19:38:40.748Z,10.00
2018-04-01T19:41:11.753Z,10.57
2018-04-01T19:43:42.799Z,9.67
2018-04-01T19:46:13.838Z,9.50
2018-04-01T19:48:44.824Z,10.83
2018-04-01T19:51:15.885Z,10.83
2018-04-01T19:53:46.880Z,11.53
2018-04-01T19:56:17.914Z,11.50
2018-04-01T19:58:48.889Z,10.93
2018-04-01T20:01:19.876Z,10.90
2018-04-01T20:03:50.852Z,11.67
2018-04-01T20:06:21.829Z,11.37
2018-04-01T20:08:52.800Z,11.13
2018-04-01T20:11:23.813Z,11.53
2018-04-01T20:13:54.840Z,9.63
2018-04-01T20:16:25.829Z,9.70
2018-04-01T20:18:56.907Z,10.60
2018-04-01T20:21:27.891Z,9.70
2018-04-01T20:23:58.832Z,9.63
2018-04-01T20:26:29.821Z,10.80
2018-04-01T20:29:00.789Z,9.90
2018-04-01T20:31:31.799Z,10.20
2018-04-01T20:34:02.751Z,10.57
2018-04-01T20:36:33.744Z,9.60
2018-04-01T20:39:04.809Z,9.80
2018-04-01T20:41:35.800Z,13.10
2018-04-01T20:44:06.774Z,9.77
2018-04-01T20:46:37.767Z,10.00
2018-04-01T20:49:08.739Z,9.23
2018-04-01T20:51:39.747Z,8.03
2018-04-01T20:54:10.720Z,8.57
2018-04-01T20:56:41.731Z,10.00
2018-04-01T20:59:12.713Z,8.37
2018-04-01T21:01:43.718Z,8.80
2018-04-01T21:04:14.750Z,8.70
2018-04-01T21:06:45.761Z,11.07
2018-04-01T21:09:16.785Z,8.70
2018-04-01T21:11:47.793Z,8.23
2018-04-01T21:14:18.819Z,7.83
2018-04-01T21:16:49.792Z,8.63
2018-04-01T21:19:20.820Z,9.17
2018-04-01T21:21:51.809Z,9.70
2018-04-01T21:24:22.811Z,9.57
2018-04-01T21:26:53.798Z,8.27
2018-04-01T21:29:24.773Z,13.53
2018-04-01T21:31:55.781Z,10.13
2018-04-01T21:34:26.743Z,9.03
2018-04-01T21:36:57.769Z,8.60
2018-04-01T21:39:28.751Z,9.67
2018-04-01T21:41:59.724Z,8.30
2018-04-01T21:44:30.692Z,9.73
2018-04-01T21:47:01.720Z,8.63
2018-04-01T21:49:32.729Z,9.03
2018-04-01T21:52:03.768Z,9.13
2018-04-01T21:54:34.712Z,9.70
2018-04-01T22:00:01.726Z,8.60
2018-04-01T22:02:32.763Z,10.07
2018-04-01T22:05:03.737Z,9.73
2018-04-01T22:07:34.699Z,8.67
2018-04-01T22:10:05.723Z,9.00
2018-04-01T22:12:36.677Z,8.67
2018-04-01T22:15:07.709Z,10.40
2018-04-01T22:17:38.681Z,9.13
2018-04-01T22:20:09.733Z,9.70
2018-04-01T22:22:53.025Z,11.00
2018-04-01T22:25:24.027Z,9.00
2018-04-01T22:27:54.964Z,10.37
2018-04-01T22:30:25.969Z,10.67
2018-04-01T22:32:56.984Z,10.67
2018-04-01T22:35:27.942Z,9.80
2018-04-01T22:37:58.895Z,10.60
2018-04-01T22:40:29.858Z,10.37
2018-04-01T22:43:00.833Z,10.87
2018-04-01T22:45:31.842Z,10.23
2018-04-01T22:48:02.864Z,9.30
2018-04-01T22:50:33.865Z,10.67
2018-04-01T22:53:04.875Z,11.60
2018-04-01T22:55:35.897Z,11.77
2018-04-01T22:58:06.879Z,10.97
2018-04-01T23:00:37.907Z,10.37
2018-04-01T23:03:08.914Z,10.70
2018-04-01T23:05:39.866Z,10.57
2018-04-01T23:08:10.860Z,10.67
2018-04-01T23:10:41.813Z,10.80
2018-04-01T23:13:12.802Z,9.90
2018-04-01T23:15:43.769Z,10.73
2018-04-01T23:18:14.736Z,10.67
2018-04-01T23:20:45.750Z,9.07
2018-04-01T23:23:16.788Z,10.83
2018-04-01T23:25:47.772Z,9.83
2018-04-01T23:28:18.795Z,9.30
2018-04-01T23:30:49.736Z,10.20
2018-04-01T23:33:20.697Z,10.10
2018-04-01T23:35:51.674Z,10.70
2018-04-01T23:38:22.699Z,9.53
2018-04-01T23:40:53.677Z,10.67
2018-04-01T23:43:24.695Z,10.27
2018-04-01T23:45:55.657Z,10.13
2018-04-01T23:48:26.631Z,9.77
2018-04-01T23:50:57.619Z,10.50
2018-04-01T23:53:28.646Z,10.67
2018-04-01T23:55:59.657Z,10.00
2018-04-01T23:58:30.666Z,10.90
